Time;durP1;ratioP1;P1;durP2;ratioP2;P2;SDS_P1;SDS_P2;PMS_P1;PMS_P2;Temp;Humidity;BMP_temperature;BMP_pressure;BME280_temperature;BME280_humidity;BME280_pressure;Samples;Min_cycle;Max_cycle;Signal;HPM_P1;HPM_P2
2023/09/24 00:00:00;;;;;;;1.42;1.00;;;16.90;99.90;;;15.54;100.00;100012.84;10269277;28;96997;-93
2023/09/24 00:05:08;;;;;;;1.95;1.20;;;16.90;99.90;;;15.47;100.00;100025.38;10230769;28;96646;-93
2023/09/24 00:10:12;;;;;;;1.48;1.10;;;16.80;99.90;;;15.40;100.00;100017.34;10250695;28;96428;-93
2023/09/24 00:15:15;;;;;;;2.30;1.35;;;16.70;99.90;;;15.37;100.00;100000.88;10276471;28;96937;-93
2023/09/24 00:20:19;;;;;;;1.88;1.38;;;16.60;99.90;;;15.32;100.00;100019.38;10224158;28;97621;-93
2023/09/24 00:25:23;;;;;;;1.60;1.20;;;16.60;99.90;;;15.29;100.00;100030.50;10293305;28;96522;-92
2023/09/24 00:30:27;;;;;;;2.42;1.35;;;16.60;99.90;;;15.24;100.00;100009.69;10278348;28;96673;-93
2023/09/24 00:35:31;;;;;;;2.53;1.42;;;16.50;99.90;;;15.22;100.00;100031.28;10275586;28;96577;-93
2023/09/24 00:40:35;;;;;;;2.35;1.65;;;16.50;99.90;;;15.22;100.00;100030.47;10242141;28;97697;-92
2023/09/24 00:45:39;;;;;;;2.28;1.42;;;16.50;99.90;;;15.26;100.00;100062.00;10282716;28;98470;-92
2023/09/24 00:50:44;;;;;;;2.15;1.58;;;16.60;99.90;;;15.32;100.00;100059.53;10243661;28;98212;-94
2023/09/24 00:55:48;;;;;;;1.83;1.38;;;16.60;99.90;;;15.35;100.00;100056.44;10245131;28;97059;-94
2023/09/24 01:00:53;;;;;;;1.90;1.42;;;16.70;99.90;;;15.37;100.00;100060.59;10257701;28;97937;-92
2023/09/24 01:05:57;;;;;;;2.40;1.33;;;16.70;99.90;;;15.40;100.00;100060.19;10241351;28;96625;-92
2023/09/24 01:11:02;;;;;;;2.65;1.83;;;16.70;99.90;;;15.44;100.00;100060.59;10275461;28;98216;-93
2023/09/24 01:16:07;;;;;;;2.83;1.27;;;16.80;99.90;;;15.46;100.00;100062.03;10262583;28;98685;-94
2023/09/24 01:21:13;;;;;;;2.72;1.48;;;16.80;99.90;;;15.49;100.00;100053.63;10275422;28;96747;-93
2023/09/24 01:26:19;;;;;;;3.05;1.50;;;16.90;99.90;;;15.50;100.00;100062.47;10291351;28;96689;-93
2023/09/24 01:31:26;;;;;;;2.03;1.27;;;16.90;99.90;;;15.54;100.00;100058.38;10248195;28;96815;-93
2023/09/24 01:36:30;;;;;;;2.10;1.60;;;16.90;99.90;;;15.53;100.00;100043.31;10274944;28;96813;-93
2023/09/24 01:41:33;;;;;;;2.97;1.90;;;16.90;99.90;;;15.55;100.00;100065.38;10238786;28;98178;-92
2023/09/24 01:46:38;;;;;;;2.83;1.92;;;16.90;99.90;;;15.58;100.00;100072.97;10224530;28;96761;-93
2023/09/24 01:51:44;;;;;;;2.50;1.70;;;16.90;99.90;;;15.58;100.00;100058.75;10255436;28;96652;-93
2023/09/24 01:56:48;;;;;;;3.58;2.17;;;16.90;99.90;;;15.60;100.00;100056.72;10256472;28;96790;-93
2023/09/24 02:01:52;;;;;;;2.78;2.10;;;17.00;99.90;;;15.62;100.00;100063.56;10240416;28;96604;-93
2023/09/24 02:06:56;;;;;;;2.75;2.00;;;17.00;99.90;;;15.64;100.00;100077.56;10202899;28;96764;-94
2023/09/24 02:12:00;;;;;;;2.47;1.50;;;17.00;99.90;;;15.63;100.00;100069.72;10253264;28;96924;-93
2023/09/24 02:17:04;;;;;;;4.10;1.30;;;17.00;99.90;;;15.66;100.00;100059.44;10275676;28;96720;-92
2023/09/24 02:22:08;;;;;;;2.08;1.52;;;17.10;99.90;;;15.68;100.00;100069.94;10259895;28;96777;-93
2023/09/24 02:27:12;;;;;;;2.75;1.80;;;17.00;99.90;;;15.65;100.00;100070.34;10233239;28;96693;-93
2023/09/24 02:32:16;;;;;;;2.83;1.90;;;17.00;99.90;;;15.64;100.00;100064.16;10271939;28;96549;-93
2023/09/24 02:37:22;;;;;;;5.85;1.77;;;16.90;99.90;;;15.58;100.00;100056.91;10240137;28;97179;-93
2023/09/24 02:42:26;;;;;;;2.80;1.90;;;16.90;99.90;;;15.52;100.00;100036.31;10258346;28;96501;-95
2023/09/24 02:47:30;;;;;;;2.63;1.85;;;16.90;99.90;;;15.50;100.00;100033.00;10271637;28;96622;-94
2023/09/24 02:52:35;;;;;;;3.80;2.30;;;16.80;99.90;;;15.47;100.00;100053.00;10274233;28;96694;-94
2023/09/24 02:57:40;;;;;;;3.13;1.80;;;16.80;99.90;;;15.45;100.00;100047.00;10290611;28;96657;-94
2023/09/24 03:02:45;;;;;;;3.17;2.28;;;16.80;99.90;;;15.41;100.00;100061.84;10255440;28;96553;-94
2023/09/24 03:07:50;;;;;;;3.53;2.45;;;16.70;99.90;;;15.31;100.00;100045.34;10218756;28;96726;-96
2023/09/24 03:13:00;;;;;;;3.30;2.50;;;16.60;99.90;;;15.20;100.00;100043.25;10233805;28;96576;-95
2023/09/24 03:18:04;;;;;;;4.35;2.92;;;16.50;99.90;;;15.16;100.00;100036.63;10228549;28;98047;-94
2023/09/24 03:23:12;;;;;;;4.22;2.97;;;16.50;99.90;;;15.07;100.00;100014.59;10240213;28;96793;-93
2023/09/24 03:28:16;;;;;;;4.75;3.08;;;16.40;99.90;;;15.02;100.00;100021.56;10271654;28;97407;-95
2023/09/24 03:33:19;;;;;;;4.25;3.20;;;16.30;99.90;;;14.97;100.00;100035.56;10245167;28;97199;-94
2023/09/24 03:38:23;;;;;;;9.77;3.70;;;16.20;99.90;;;14.94;100.00;100039.47;10254478;28;96729;-94
2023/09/24 03:43:27;;;;;;;4.68;2.75;;;16.20;99.90;;;14.93;100.00;100045.84;10271792;28;96663;-95
2023/09/24 03:48:31;;;;;;;3.88;2.88;;;16.30;99.90;;;14.93;100.00;100055.69;10238715;28;99015;-94
2023/09/24 03:53:35;;;;;;;4.15;2.97;;;16.20;99.90;;;14.93;100.00;100050.34;10244934;28;97187;-93
2023/09/24 03:58:39;;;;;;;4.20;3.00;;;16.20;99.90;;;14.90;100.00;100048.09;10209006;28;97081;-95
2023/09/24 04:03:42;;;;;;;3.60;2.50;;;16.20;99.90;;;14.89;100.00;100060.63;10268608;28;96705;-94
2023/09/24 04:08:46;;;;;;;6.55;3.00;;;16.20;99.90;;;14.94;100.00;100065.41;10246995;28;96443;-94
2023/09/24 04:13:50;;;;;;;3.13;2.35;;;16.30;99.90;;;14.97;100.00;100071.16;10212886;28;97666;-96
2023/09/24 04:18:54;;;;;;;4.53;2.92;;;16.30;99.90;;;14.98;100.00;100059.41;10265452;28;98775;-96
2023/09/24 04:23:57;;;;;;;5.28;3.67;;;16.40;99.90;;;15.01;100.00;100071.59;10204197;28;96738;-95
2023/09/24 04:29:02;;;;;;;4.50;3.50;;;16.40;99.90;;;15.03;100.00;100084.75;10237920;28;98514;-96
2023/09/24 04:34:06;;;;;;;4.90;2.55;;;16.40;99.90;;;15.03;100.00;100090.94;10249214;28;96500;-95
2023/09/24 04:39:10;;;;;;;4.40;3.40;;;16.40;99.90;;;15.00;100.00;100086.00;10265932;28;97319;-96
2023/09/24 04:44:15;;;;;;;5.22;3.28;;;16.40;99.90;;;14.99;100.00;100100.38;10273052;28;97711;-96
2023/09/24 04:49:18;;;;;;;4.43;2.80;;;16.40;99.90;;;14.90;100.00;100089.03;10238436;28;96735;-96
2023/09/24 04:54:22;;;;;;;3.50;2.60;;;16.40;99.90;;;14.85;100.00;100104.03;10269467;28;97333;-96
2023/09/24 04:59:26;;;;;;;6.60;4.10;;;16.30;99.90;;;14.83;100.00;100114.13;10277863;28;96618;-95
2023/09/24 05:04:31;;;;;;;8.73;5.28;;;16.20;99.90;;;14.82;100.00;100112.47;10274541;28;96577;-96
2023/09/24 05:09:35;;;;;;;5.03;3.42;;;16.20;99.90;;;14.72;100.00;100100.25;10244983;28;96738;-95
2023/09/24 05:14:39;;;;;;;3.72;2.55;;;16.10;99.90;;;14.75;100.00;100114.25;10273067;28;96724;-95
2023/09/24 05:19:43;;;;;;;4.32;2.90;;;16.10;99.90;;;14.72;100.00;100113.63;10243637;28;98349;-95
2023/09/24 05:24:47;;;;;;;5.50;3.40;;;16.10;99.90;;;14.80;100.00;100111.81;10243473;28;96614;-94
2023/09/24 05:29:51;;;;;;;4.13;2.90;;;16.20;99.90;;;14.80;100.00;100114.50;10242388;28;96593;-93
2023/09/24 05:34:55;;;;;;;3.67;2.53;;;16.20;99.90;;;14.77;100.00;100117.56;10257502;28;96775;-94
2023/09/24 05:39:59;;;;;;;3.50;2.38;;;16.20;99.90;;;14.80;100.00;100128.69;10253354;28;96888;-94
2023/09/24 05:45:03;;;;;;;4.50;2.72;;;16.20;99.90;;;14.78;100.00;100141.44;10235305;28;96648;-94
2023/09/24 05:50:08;;;;;;;3.00;1.80;;;16.20;99.90;;;14.78;100.00;100143.28;10219541;28;96870;-96
2023/09/24 05:55:11;;;;;;;2.88;1.70;;;16.10;99.90;;;14.78;100.00;100151.31;10278484;28;97627;-95
2023/09/24 06:00:16;;;;;;;2.55;1.30;;;16.10;99.90;;;14.80;100.00;100147.41;10233400;28;96685;-96
2023/09/24 06:05:20;;;;;;;2.20;1.10;;;16.10;99.90;;;14.79;100.00;100144.94;10258087;28;97261;-95
2023/09/24 06:10:24;;;;;;;1.55;1.05;;;16.20;99.90;;;14.88;100.00;100157.16;10306704;23;96417;-90
2023/09/24 06:15:29;;;;;;;1.58;0.90;;;16.20;99.90;;;14.93;100.00;100162.72;10214141;28;98080;-89
2023/09/24 06:20:39;;;;;;;1.90;0.95;;;16.30;99.90;;;14.92;100.00;100159.22;10204725;28;98313;-85
2023/09/24 06:25:44;;;;;;;2.60;1.20;;;16.30;99.90;;;14.99;100.00;100169.94;10184626;28;96500;-87
2023/09/24 06:30:48;;;;;;;1.55;0.90;;;16.30;99.90;;;15.01;100.00;100178.63;10214731;28;98216;-88
2023/09/24 06:35:52;;;;;;;2.20;1.33;;;16.30;99.90;;;15.06;100.00;100192.25;10187626;28;97715;-88
2023/09/24 06:41:02;;;;;;;1.95;1.13;;;16.40;99.90;;;15.11;100.00;100199.66;10188727;28;96680;-90
2023/09/24 06:46:06;;;;;;;0.80;0.50;;;16.40;99.90;;;15.11;100.00;100213.88;10201351;28;98699;-89
2023/09/24 06:51:10;;;;;;;1.80;0.60;;;16.40;99.90;;;15.09;100.00;100217.78;10212924;28;97478;-88
2023/09/24 06:56:13;;;;;;;1.23;0.57;;;16.40;99.90;;;15.07;100.00;100219.84;10176824;28;96454;-88
2023/09/24 07:01:17;;;;;;;0.90;0.50;;;16.30;99.90;;;15.01;100.00;100221.44;10177058;28;97422;-88
2023/09/24 07:06:21;;;;;;;1.42;0.50;;;16.30;99.90;;;14.97;100.00;100233.56;10186129;28;96891;-88
2023/09/24 07:11:32;;;;;;;2.28;0.70;;;16.30;99.90;;;14.91;100.00;100248.53;10214093;28;97029;-88
2023/09/24 07:16:36;;;;;;;1.17;0.55;;;16.20;99.90;;;14.86;100.00;100244.78;10246142;28;96423;-89
2023/09/24 07:21:40;;;;;;;1.13;0.70;;;16.20;99.90;;;14.85;100.00;100238.63;10241295;28;97601;-88
2023/09/24 07:26:44;;;;;;;0.88;0.47;;;16.20;99.90;;;14.87;100.00;100246.44;10213893;28;96467;-88
2023/09/24 07:31:48;;;;;;;1.27;0.70;;;16.20;99.90;;;14.87;100.00;100249.13;10211554;28;96493;-88
2023/09/24 07:36:51;;;;;;;1.20;0.90;;;16.20;99.90;;;14.84;100.00;100258.38;10173311;28;96675;-88
2023/09/24 07:42:00;;;;;;;1.17;0.60;;;16.20;99.90;;;14.85;100.00;100269.91;10189799;28;97390;-87
2023/09/24 07:47:05;;;;;;;0.70;0.50;;;16.20;99.90;;;14.81;100.00;100260.59;10193234;28;98293;-88
2023/09/24 07:52:12;;;;;;;1.08;0.65;;;16.20;99.90;;;14.81;100.00;100268.63;10221860;28;98084;-87
2023/09/24 07:57:16;;;;;;;0.65;0.50;;;16.10;99.90;;;14.77;100.00;100275.41;10229593;28;96484;-87
2023/09/24 08:02:20;;;;;;;0.77;0.55;;;16.10;99.90;;;14.76;100.00;100273.75;10212975;28;96549;-86
2023/09/24 08:07:26;;;;;;;2.13;0.60;;;16.10;99.90;;;14.72;100.00;100282.16;10209927;28;96738;-87
2023/09/24 08:12:32;;;;;;;1.08;0.63;;;16.10;99.90;;;14.68;100.00;100285.38;10195620;28;97023;-87
2023/09/24 08:17:36;;;;;;;0.93;0.50;;;16.10;99.90;;;14.65;100.00;100291.97;10175043;28;96522;-86
2023/09/24 08:22:40;;;;;;;0.93;0.60;;;16.00;99.90;;;14.64;100.00;100290.31;10199902;28;97904;-87
2023/09/24 08:27:45;;;;;;;1.35;0.55;;;16.00;99.90;;;14.63;100.00;100294.00;10182297;28;96670;-87
2023/09/24 08:32:51;;;;;;;0.60;0.50;;;16.00;99.90;;;14.62;100.00;100286.16;10199287;28;96813;-86
2023/09/24 08:37:56;;;;;;;1.48;0.70;;;16.00;99.90;;;14.58;100.00;100287.59;10221549;28;96498;-87
2023/09/24 08:43:09;;;;;;;0.70;0.45;;;15.90;99.90;;;14.56;100.00;100289.59;10219859;28;96674;-88
2023/09/24 08:48:15;;;;;;;0.80;0.50;;;15.90;99.90;;;14.54;100.00;100287.13;10214583;28;96752;-87
2023/09/24 08:53:21;;;;;;;0.60;0.50;;;15.90;99.90;;;14.58;100.00;100306.31;10202732;28;96702;-86
2023/09/24 08:58:25;;;;;;;2.15;0.60;;;15.90;99.90;;;14.58;100.00;100304.44;10196247;28;97550;-86
2023/09/24 09:03:32;;;;;;;0.80;0.60;;;15.90;99.90;;;14.56;100.00;100306.47;10193213;28;96703;-86
2023/09/24 09:08:52;;;;;;;1.00;0.70;;;15.90;99.90;;;14.55;100.00;100317.38;10234709;28;96501;-85
2023/09/24 09:13:57;;;;;;;1.00;0.50;;;15.90;99.90;;;14.52;100.00;100312.41;10200112;28;96698;-85
2023/09/24 09:19:03;;;;;;;0.45;0.40;;;15.90;99.90;;;14.53;100.00;100314.88;10192707;28;96521;-85
2023/09/24 09:24:24;;;;;;;1.83;1.05;;;15.90;99.90;;;14.55;100.00;100322.72;10162008;28;96407;-86
2023/09/24 09:29:28;;;;;;;0.63;0.28;;;15.90;99.90;;;14.57;100.00;100320.66;10193654;28;96514;-86
2023/09/24 09:34:34;;;;;;;0.47;0.40;;;15.90;99.90;;;14.57;100.00;100328.69;10211796;28;96566;-86
2023/09/24 09:39:38;;;;;;;1.65;0.73;;;15.90;99.90;;;14.55;100.00;100328.06;10217148;28;96672;-86
2023/09/24 09:44:45;;;;;;;0.50;0.40;;;15.90;99.90;;;14.56;100.00;100338.56;10214702;28;96729;-86
2023/09/24 09:49:58;;;;;;;0.90;0.25;;;15.90;99.90;;;14.53;100.00;100336.28;10217177;28;97196;-88
2023/09/24 09:55:06;;;;;;;0.47;0.30;;;15.90;99.90;;;14.51;100.00;100330.28;10152685;28;96733;-87
2023/09/24 10:00:11;;;;;;;0.90;0.40;;;15.90;99.90;;;14.58;100.00;100343.75;10200733;28;97822;-86
2023/09/24 10:05:16;;;;;;;1.20;0.70;;;16.00;99.90;;;14.57;100.00;100342.88;10194396;28;97603;-87
2023/09/24 10:10:35;;;;;;;4.68;2.60;;;15.90;99.90;;;14.60;100.00;100347.88;10209321;28;97604;-88
2023/09/24 10:15:38;;;;;;;1.42;0.63;;;16.00;99.90;;;14.59;100.00;100345.38;10194833;28;96771;-86
2023/09/24 10:20:49;;;;;;;1.58;0.77;;;16.00;99.90;;;14.62;100.00;100356.50;10190141;28;97679;-87
2023/09/24 10:25:53;;;;;;;0.50;0.50;;;16.00;99.90;;;14.61;100.00;100365.56;10180088;28;96971;-87
2023/09/24 10:31:06;;;;;;;0.85;0.40;;;16.00;99.90;;;14.60;100.00;100366.59;10183010;28;97607;-86
2023/09/24 10:36:29;;;;;;;0.93;0.47;;;16.00;99.90;;;14.62;100.00;100363.72;10168337;28;97755;-86
2023/09/24 10:41:56;;;;;;;0.85;0.40;;;16.00;99.90;;;14.65;100.00;100369.53;10207288;28;98588;-86
2023/09/24 10:47:30;;;;;;;0.63;0.20;;;16.00;99.90;;;14.70;100.00;100369.78;10183725;28;97856;-86
2023/09/24 10:52:50;;;;;;;0.28;0.20;;;16.10;99.90;;;14.79;100.00;100378.50;10169102;28;99161;-86
2023/09/24 10:57:57;;;;;;;0.37;0.20;;;16.20;99.90;;;14.80;100.00;100366.78;10191471;28;96595;-89
2023/09/24 11:03:07;;;;;;;0.30;0.20;;;16.20;99.90;;;14.80;100.00;100382.81;10197725;28;96731;-87
2023/09/24 11:08:14;;;;;;;0.63;0.17;;;16.20;99.90;;;14.76;100.00;100372.72;10188333;28;97950;-86
2023/09/24 11:13:25;;;;;;;0.30;0.15;;;16.20;99.90;;;14.78;100.00;100368.00;10170263;28;97813;-86
2023/09/24 11:18:29;;;;;;;0.45;0.20;;;16.20;99.90;;;14.77;100.00;100358.31;10163332;28;98674;-86
2023/09/24 11:23:37;;;;;;;0.08;0.08;;;16.20;99.90;;;14.80;100.00;100364.09;10222575;28;96771;-86
2023/09/24 11:28:41;;;;;;;0.30;0.17;;;16.20;99.90;;;14.82;100.00;100375.47;10194065;28;97625;-87
2023/09/24 11:33:57;;;;;;;0.10;0.10;;;16.20;99.90;;;14.84;100.00;100380.63;10193049;28;97624;-87
2023/09/24 11:39:04;;;;;;;0.25;0.10;;;16.20;99.90;;;14.87;100.00;100375.72;10177521;28;97842;-87
2023/09/24 11:44:08;;;;;;;0.13;0.10;;;16.20;99.90;;;14.95;100.00;100374.75;10177173;28;96644;-88
2023/09/24 11:49:12;;;;;;;0.20;0.20;;;16.30;99.90;;;15.04;100.00;100370.91;10161534;28;96905;-87
2023/09/24 11:54:16;;;;;;;0.38;0.17;;;16.40;99.90;;;15.13;100.00;100372.44;10219777;28;97306;-87
2023/09/24 11:59:20;;;;;;;0.03;0.03;;;16.50;99.90;;;15.14;100.00;100376.78;10198644;28;97673;-88
2023/09/24 12:04:24;;;;;;;1.48;0.20;;;16.50;99.90;;;15.16;100.00;100374.72;10179360;28;96737;-89
2023/09/24 12:09:28;;;;;;;0.40;0.20;;;16.50;99.90;;;15.21;100.00;100374.97;10197973;28;96603;-87
2023/09/24 12:14:34;;;;;;;0.17;0.10;;;16.60;99.90;;;15.34;100.00;100373.41;10206633;28;96791;-88
2023/09/24 12:19:37;;;;;;;0.15;0.10;;;16.70;99.90;;;15.37;100.00;100371.19;10215435;28;96940;-86
2023/09/24 12:24:41;;;;;;;1.42;0.82;;;16.80;99.90;;;15.44;100.00;100381.94;10193367;28;97313;-87
2023/09/24 12:29:45;;;;;;;0.43;0.15;;;16.80;99.90;;;15.46;100.00;100390.59;10187468;28;97312;-87
2023/09/24 12:34:52;;;;;;;0.10;0.00;;;16.90;99.90;;;15.43;100.00;100404.41;10192526;28;96718;-88
2023/09/24 12:39:56;;;;;;;0.10;0.10;;;16.90;99.90;;;15.39;100.00;100390.56;10218374;28;98304;-89
2023/09/24 12:45:05;;;;;;;0.50;0.17;;;16.80;99.90;;;15.41;100.00;100388.53;10202785;28;98841;-88
2023/09/24 12:50:12;;;;;;;0.20;0.15;;;16.80;99.90;;;15.45;100.00;100376.38;10184796;28;96625;-87
2023/09/24 12:55:17;;;;;;;0.43;0.20;;;16.80;99.90;;;15.42;100.00;100386.69;10181238;28;97067;-87
2023/09/24 13:00:21;;;;;;;0.10;0.10;;;16.90;99.90;;;15.50;100.00;100383.84;10192260;28;98088;-88
2023/09/24 13:05:26;;;;;;;0.43;0.30;;;16.90;99.90;;;15.52;100.00;100369.22;10182360;28;97059;-88
2023/09/24 13:10:32;;;;;;;0.17;0.10;;;16.90;99.90;;;15.55;100.00;100383.25;10201430;28;97468;-87
2023/09/24 13:15:36;;;;;;;0.85;0.38;;;16.90;99.90;;;15.60;100.00;100375.47;10205932;28;97320;-88
2023/09/24 13:20:40;;;;;;;0.38;0.10;;;17.00;99.90;;;15.64;100.00;100369.53;10181547;28;98312;-88
2023/09/24 13:25:45;;;;;;;0.68;0.30;;;17.00;99.90;;;15.70;100.00;100382.13;10172126;28;97584;-89
2023/09/24 13:30:48;;;;;;;0.45;0.20;;;17.10;99.90;;;15.73;100.00;100381.75;10192647;28;96848;-88
2023/09/24 13:35:52;;;;;;;0.40;0.20;;;17.10;99.90;;;15.74;100.00;100382.59;10180934;28;97553;-88
2023/09/24 13:40:56;;;;;;;1.52;0.93;;;17.10;99.90;;;15.75;100.00;100392.28;10186506;28;96593;-88
2023/09/24 13:46:00;;;;;;;1.70;1.00;;;17.10;99.90;;;15.75;100.00;100406.50;10156508;28;97154;-88
2023/09/24 13:51:04;;;;;;;0.85;0.70;;;17.20;99.90;;;15.77;100.00;100406.28;10195254;28;98740;-88
2023/09/24 13:56:15;;;;;;;0.68;0.50;;;17.20;99.90;;;15.82;100.00;100411.88;10196164;28;96893;-90
2023/09/24 14:01:18;;;;;;;;;;;17.20;99.90;;;15.86;100.00;100417.69;10198149;28;97167;-90
2023/09/24 14:06:22;;;;;;;1.85;0.50;;;17.20;99.90;;;15.85;100.00;100421.41;10187062;28;98405;-87
2023/09/24 14:16:49;;;;;;;0.70;0.30;;;17.30;99.90;;;15.89;100.00;100409.25;10194810;28;96628;-87
2023/09/24 14:21:53;;;;;;;0.63;0.30;;;17.30;99.90;;;15.92;100.00;100411.56;10166198;28;99316;-87
2023/09/24 14:26:57;;;;;;;1.15;0.40;;;17.30;99.90;;;15.92;100.00;100403.50;10214581;28;97415;-90
2023/09/24 14:32:01;;;;;;;1.65;0.40;;;17.30;99.90;;;15.93;100.00;100421.25;10187825;28;96731;-89
2023/09/24 14:37:05;;;;;;;1.85;0.20;;;17.30;99.90;;;15.91;100.00;100424.13;10192468;28;97515;-87
2023/09/24 14:42:09;;;;;;;0.70;0.30;;;17.30;99.90;;;15.94;100.00;100438.97;10193410;28;97720;-87
2023/09/24 14:47:13;;;;;;;0.98;0.50;;;17.30;99.90;;;15.94;100.00;100430.94;10170336;28;96788;-88
2023/09/24 14:52:17;;;;;;;0.30;0.30;;;17.30;99.90;;;15.94;100.00;100436.28;10153607;28;96790;-89
2023/09/24 14:57:21;;;;;;;1.17;0.32;;;17.30;99.90;;;15.93;100.00;100453.41;10170555;28;98490;-89
2023/09/24 15:02:25;;;;;;;0.82;0.38;;;17.30;99.90;;;15.94;100.00;100458.56;10193082;28;97583;-86
2023/09/24 15:07:29;;;;;;;4.28;0.30;;;17.30;99.90;;;15.95;100.00;100443.31;10189776;28;98631;-86
2023/09/24 15:12:33;;;;;;;0.50;0.30;;;17.30;99.90;;;15.94;100.00;100468.44;10190115;28;99696;-87
2023/09/24 15:17:37;;;;;;;0.47;0.30;;;17.30;99.90;;;15.92;100.00;100471.34;10162378;28;98942;-87
2023/09/24 15:22:41;;;;;;;0.60;0.30;;;17.30;99.90;;;15.92;100.00;100465.16;10196881;28;97954;-84
2023/09/24 15:27:45;;;;;;;0.57;0.47;;;17.30;99.90;;;15.92;100.00;100465.16;10198347;28;98833;-85
2023/09/24 15:32:49;;;;;;;1.20;0.70;;;17.30;99.90;;;15.92;100.00;100473.19;10210251;28;97551;-85
2023/09/24 15:37:53;;;;;;;0.80;0.40;;;17.40;99.90;;;15.94;100.00;100476.50;10182702;28;98700;-84
2023/09/24 15:42:56;;;;;;;2.72;0.82;;;17.40;99.90;;;15.92;100.00;100473.19;10183807;28;97283;-85
2023/09/24 15:48:01;;;;;;;1.50;0.65;;;17.30;99.90;;;15.94;100.00;100480.00;10170427;28;98302;-87
2023/09/24 15:53:05;;;;;;;1.75;0.70;;;17.40;99.90;;;15.93;100.00;100482.88;10184663;28;97710;-84
2023/09/24 15:58:09;;;;;;;1.98;0.95;;;17.40;99.90;;;15.91;100.00;100483.09;10176135;28;98465;-85
2023/09/24 16:03:17;;;;;;;1.13;0.80;;;17.40;99.90;;;15.91;100.00;100490.31;10176491;28;100408;-84
2023/09/24 16:08:21;;;;;;;1.30;0.60;;;17.40;99.90;;;15.89;100.00;100498.50;10184439;28;98868;-84
2023/09/24 16:13:25;;;;;;;1.10;0.60;;;17.30;99.90;;;15.86;100.00;100504.28;10185256;28;98509;-84
2023/09/24 16:18:29;;;;;;;0.70;0.60;;;17.20;99.90;;;15.85;100.00;100507.97;10185285;28;98404;-84
2023/09/24 16:23:34;;;;;;;1.75;0.90;;;17.30;99.90;;;15.86;100.00;100519.53;10192063;28;96709;-86
2023/09/24 16:28:37;;;;;;;1.60;0.70;;;17.20;99.90;;;15.83;100.00;100517.22;10174354;28;97453;-86
2023/09/24 16:33:45;;;;;;;0.70;0.40;;;17.20;99.90;;;15.81;100.00;100511.25;10202606;28;99337;-85
2023/09/24 16:38:49;;;;;;;1.00;0.60;;;17.20;99.90;;;15.79;100.00;100528.34;10162627;28;98840;-86
2023/09/24 16:43:52;;;;;;;1.80;0.93;;;17.20;99.90;;;15.78;100.00;100540.09;10180086;28;98106;-86
2023/09/24 16:49:03;;;;;;;1.00;0.60;;;17.20;99.90;;;15.77;100.00;100551.84;10183080;28;97570;-86
2023/09/24 16:54:07;;;;;;;0.52;0.47;;;17.20;99.90;;;15.77;100.00;100543.78;10212494;28;98235;-86
2023/09/24 16:59:11;;;;;;;0.90;0.50;;;17.20;99.90;;;15.74;100.00;100560.25;10192591;28;96774;-87
2023/09/24 17:04:14;;;;;;;1.35;0.70;;;17.20;99.90;;;15.73;100.00;100568.47;10230652;28;97123;-86
2023/09/24 17:09:20;;;;;;;1.02;0.43;;;17.20;99.90;;;15.72;100.00;100577.53;10196502;28;97986;-88
2023/09/24 17:14:24;;;;;;;2.75;0.50;;;17.20;99.90;;;15.68;100.00;100587.81;10189666;28;97007;-88
2023/09/24 17:19:29;;;;;;;2.03;0.55;;;17.10;99.90;;;15.67;100.00;100590.69;10199904;28;98760;-86
2023/09/24 17:24:33;;;;;;;1.02;0.45;;;17.10;99.90;;;15.65;100.00;100588.22;10171101;28;98551;-86
2023/09/24 17:29:36;;;;;;;0.60;0.35;;;17.10;99.90;;;15.68;100.00;100589.66;10190712;28;96737;-88
2023/09/24 17:34:41;;;;;;;0.50;0.30;;;17.10;99.90;;;15.66;100.00;100586.34;10174307;28;96808;-92
2023/09/24 17:39:46;;;;;;;0.60;0.40;;;17.00;99.90;;;15.66;100.00;100591.72;10186687;28;96997;-91
2023/09/24 17:44:51;;;;;;;0.60;0.30;;;17.10;99.90;;;15.68;100.00;100593.16;10203943;28;97364;-91
2023/09/24 17:49:57;;;;;;;2.35;0.40;;;17.10;99.90;;;15.68;100.00;100593.16;10181954;28;97607;-91
2023/09/24 17:55:01;;;;;;;0.93;0.40;;;17.10;99.90;;;15.71;100.00;100600.84;10217430;28;96588;-92
2023/09/24 18:00:08;;;;;;;1.13;0.55;;;17.10;99.90;;;15.71;100.00;100594.63;10186346;28;97266;-91
2023/09/24 18:05:12;;;;;;;0.93;0.52;;;17.10;99.90;;;15.71;100.00;100595.47;10198666;28;96591;-91
2023/09/24 18:10:16;;;;;;;1.50;0.80;;;17.10;99.90;;;15.68;100.00;100595.84;10192165;28;96649;-91
2023/09/24 18:15:22;;;;;;;1.15;0.60;;;17.10;99.90;;;15.67;100.00;100612.94;10197027;28;97875;-91
2023/09/24 18:20:26;;;;;;;1.83;1.02;;;17.10;99.90;;;15.64;100.00;100599.91;10209358;28;96609;-90
2023/09/24 18:25:31;;;;;;;0.82;0.30;;;17.10;99.90;;;15.62;100.00;100607.31;10199936;28;97454;-90
2023/09/24 18:30:40;;;;;;;0.85;0.50;;;17.00;99.90;;;15.58;100.00;100608.69;10174118;28;96670;-91
2023/09/24 18:35:44;;;;;;;1.52;0.50;;;17.00;99.90;;;15.60;100.00;100613.88;10230833;28;97936;-90
2023/09/24 18:40:49;;;;;;;1.35;0.50;;;17.00;99.90;;;15.56;100.00;100605.38;10180698;28;97693;-91
2023/09/24 18:45:59;;;;;;;2.60;0.40;;;17.00;99.90;;;15.56;100.00;100607.22;10193691;28;97492;-91
2023/09/24 18:51:13;;;;;;;0.60;0.40;;;17.00;99.90;;;15.52;100.00;100599.56;10174402;28;97264;-91
2023/09/24 18:56:19;;;;;;;1.08;0.40;;;16.90;99.90;;;15.47;100.00;100595.78;10169275;28;97535;-92
2023/09/24 19:01:22;;;;;;;0.98;0.50;;;16.90;99.90;;;15.47;100.00;100614.53;10190908;28;98399;-91
2023/09/24 19:06:26;;;;;;;0.40;0.20;;;16.90;99.90;;;15.42;100.00;100612.44;10207581;28;98479;-93
2023/09/24 19:11:30;;;;;;;0.43;0.28;;;16.80;99.90;;;15.37;100.00;100628.25;10174477;28;98416;-92
2023/09/24 19:16:34;;;;;;;1.42;0.20;;;16.80;99.90;;;15.38;100.00;100629.91;10179093;28;96967;-93
2023/09/24 19:21:38;;;;;;;1.00;0.30;;;16.80;99.90;;;15.39;100.00;100630.72;10181439;28;98558;-92
2023/09/24 19:26:43;;;;;;;0.52;0.22;;;16.70;99.90;;;15.38;100.00;100640.63;10192212;28;96833;-93
2023/09/24 19:31:48;;;;;;;0.80;0.38;;;16.80;99.90;;;15.42;100.00;100646.44;10186527;28;96940;-92
2023/09/24 19:36:51;;;;;;;0.60;0.30;;;16.80;99.90;;;15.43;100.00;100640.06;10193900;28;96629;-92
2023/09/24 19:41:55;;;;;;;0.75;0.30;;;16.80;99.90;;;15.46;100.00;100642.34;10169196;28;97772;-91
2023/09/24 19:46:59;;;;;;;2.17;0.20;;;16.90;99.90;;;15.44;100.00;100653.25;10178241;28;96600;-92
2023/09/24 19:52:04;;;;;;;0.32;0.20;;;16.90;99.90;;;15.44;100.00;100649.75;10198139;28;97260;-92
2023/09/24 19:57:08;;;;;;;0.55;0.30;;;16.90;99.90;;;15.44;100.00;100650.56;10168089;28;96818;-91
2023/09/24 20:02:12;;;;;;;0.32;0.30;;;16.80;99.90;;;15.46;100.00;100659.25;10152018;28;98638;-91
2023/09/24 20:07:16;;;;;;;0.77;0.20;;;16.90;99.90;;;15.44;100.00;100657.78;10217715;28;96748;-92
2023/09/24 20:12:24;;;;;;;0.35;0.20;;;16.80;99.90;;;15.46;100.00;100661.91;10175811;28;98220;-92
2023/09/24 20:17:28;;;;;;;1.38;0.40;;;16.90;99.90;;;15.47;100.00;100658.25;10170652;28;98090;-92
2023/09/24 20:22:32;;;;;;;3.10;0.30;;;16.90;99.90;;;15.51;100.00;100653.31;10170773;28;96609;-92
2023/09/24 20:27:36;;;;;;;0.30;0.25;;;16.90;99.90;;;15.51;100.00;100645.28;10183972;28;97040;-91
2023/09/24 20:32:40;;;;;;;0.40;0.20;;;16.90;99.90;;;15.51;100.00;100639.94;10152174;28;97385;-92
2023/09/24 20:37:44;;;;;;;1.90;0.30;;;17.00;99.90;;;15.51;100.00;100634.56;10180291;28;98060;-90
2023/09/24 20:42:47;;;;;;;1.75;0.20;;;17.00;99.90;;;15.53;100.00;100640.56;10218764;28;96749;-91
2023/09/24 20:47:53;;;;;;;0.47;0.30;;;17.00;99.90;;;15.52;100.00;100636.22;10188103;28;98245;-90